Time;durP1;ratioP1;P1;durP2;ratioP2;P2;SDS_P1;SDS_P2;PMS_P1;PMS_P2;Temp;Humidity;BMP_temperature;BMP_pressure;BME280_temperature;BME280_humidity;BME280_pressure;Samples;Min_cycle;Max_cycle;Signal;HPM_P1;HPM_P2
2022/03/06 00:01:25;;;;;;;33.13;13.18;;;-3.80;99.90;;;;;;5075454;28;20336;-69
2022/03/06 00:03:53;;;;;;;34.45;14.35;;;-3.80;99.90;;;;;;5076721;28;20025;-69
2022/03/06 00:06:20;;;;;;;21.33;10.00;;;-3.80;99.90;;;;;;5076094;28;20035;-69
2022/03/06 00:08:47;;;;;;;26.70;12.00;;;-3.80;99.90;;;;;;5058329;28;20052;-69
2022/03/06 00:11:15;;;;;;;23.25;11.10;;;-3.80;99.90;;;;;;5076640;28;20141;-69
2022/03/06 00:13:42;;;;;;;22.90;10.82;;;-3.90;99.90;;;;;;5076135;28;20039;-69
2022/03/06 00:16:09;;;;;;;21.20;9.43;;;-3.90;99.90;;;;;;5076209;28;20076;-69
2022/03/06 00:18:37;;;;;;;26.83;10.80;;;-3.90;99.90;;;;;;5076083;28;20052;-69
2022/03/06 00:21:05;;;;;;;23.15;10.50;;;-3.90;99.90;;;;;;5076856;28;20048;-69
2022/03/06 00:23:36;;;;;;;24.35;10.98;;;-3.90;99.90;;;;;;5077493;28;20346;-69
2022/03/06 00:26:03;;;;;;;30.10;11.02;;;-3.90;99.90;;;;;;5077138;28;20103;-69
2022/03/06 00:28:31;;;;;;;22.48;10.45;;;-3.90;99.90;;;;;;5077384;28;20091;-69
2022/03/06 00:30:58;;;;;;;21.45;10.13;;;-4.00;99.90;;;;;;5079112;28;20024;-69
2022/03/06 00:33:25;;;;;;;25.90;10.15;;;-4.00;99.90;;;;;;5081062;28;20021;-69
2022/03/06 00:35:53;;;;;;;20.35;9.90;;;-4.00;99.90;;;;;;5080796;28;20342;-69
2022/03/06 00:38:20;;;;;;;59.78;16.98;;;-4.00;99.90;;;;;;5080437;28;20020;-69
2022/03/06 00:40:48;;;;;;;30.08;10.85;;;-4.00;99.90;;;;;;5062150;28;20025;-69
2022/03/06 00:43:16;;;;;;;22.23;9.57;;;-4.00;99.90;;;;;;5079420;28;20016;-69
2022/03/06 00:45:43;;;;;;;21.52;9.88;;;-4.00;99.90;;;;;;5079656;28;20099;-69
2022/03/06 00:48:12;;;;;;;20.52;10.15;;;-4.00;99.90;;;;;;5079811;28;20085;-69
2022/03/06 00:50:39;;;;;;;21.45;8.43;;;-4.10;99.90;;;;;;5079490;28;20021;-69
2022/03/06 00:53:07;;;;;;;22.70;9.82;;;-4.00;99.90;;;;;;5079235;28;20135;-69
2022/03/06 00:55:35;;;;;;;25.00;9.98;;;-4.10;99.90;;;;;;5061466;28;20161;-69
2022/03/06 00:58:05;;;;;;;19.25;8.98;;;-4.10;99.90;;;;;;5061362;28;20031;-69
2022/03/06 01:00:39;;;;;;;22.02;9.48;;;-4.10;99.90;;;;;;5079155;28;20021;-69
2022/03/06 01:03:09;;;;;;;20.10;9.05;;;-4.10;99.90;;;;;;5080323;28;20313;-69
2022/03/06 01:05:37;;;;;;;17.85;9.02;;;-4.10;99.90;;;;;;5080030;28;20056;-69
2022/03/06 01:08:05;;;;;;;21.05;8.65;;;-4.10;99.90;;;;;;5061974;28;20325;-69
2022/03/06 01:10:34;;;;;;;20.45;8.43;;;-4.10;99.90;;;;;;5080591;28;20027;-69
2022/03/06 01:13:02;;;;;;;21.20;8.50;;;-4.20;99.90;;;;;;5079801;28;20025;-69
2022/03/06 01:15:30;;;;;;;20.38;8.77;;;-4.20;99.90;;;;;;5079598;28;20654;-69
2022/03/06 01:17:57;;;;;;;21.50;10.07;;;-4.20;99.90;;;;;;5079747;28;20417;-69
2022/03/06 01:20:25;;;;;;;19.95;8.95;;;-4.20;99.90;;;;;;5061916;28;20031;-69
2022/03/06 01:22:53;;;;;;;21.73;9.25;;;-4.10;99.90;;;;;;5079125;28;20020;-69
2022/03/06 01:25:21;;;;;;;16.50;8.20;;;-4.10;99.90;;;;;;5078643;28;20409;-69
2022/03/06 01:27:49;;;;;;;17.75;8.48;;;-4.10;99.90;;;;;;5078436;28;20337;-69
2022/03/06 01:30:17;;;;;;;17.55;8.00;;;-4.00;99.90;;;;;;5078712;28;20040;-69
2022/03/06 01:32:44;;;;;;;19.63;8.43;;;-4.00;99.90;;;;;;5078813;28;20028;-69
2022/03/06 01:35:12;;;;;;;23.02;8.60;;;-3.90;99.90;;;;;;5079032;28;20416;-69
2022/03/06 01:37:39;;;;;;;16.02;7.90;;;-3.90;99.90;;;;;;5079032;28;20089;-69
2022/03/06 01:40:08;;;;;;;22.73;9.30;;;-3.80;99.90;;;;;;5078418;28;20028;-69
2022/03/06 01:42:40;;;;;;;15.27;7.95;;;-3.70;99.90;;;;;;5060241;28;20367;-69
2022/03/06 01:45:12;;;;;;;20.95;8.52;;;-3.70;99.90;;;;;;5079055;28;20313;-69
2022/03/06 01:47:45;;;;;;;18.13;7.97;;;-3.70;99.90;;;;;;5062294;28;20021;-69
2022/03/06 01:50:24;;;;;;;18.17;7.97;;;-3.60;99.90;;;;;;5079156;28;20069;-69
2022/03/06 01:52:53;;;;;;;19.40;9.45;;;-3.60;99.90;;;;;;5079069;28;20020;-69
2022/03/06 01:55:25;;;;;;;17.08;8.40;;;-3.60;99.90;;;;;;5061320;28;20078;-69
2022/03/06 01:57:56;;;;;;;16.13;8.25;;;-3.50;99.90;;;;;;5078989;28;20021;-69
2022/03/06 02:00:26;;;;;;;19.55;8.77;;;-3.50;99.90;;;;;;5079416;28;20028;-68
2022/03/06 02:02:54;;;;;;;19.70;8.98;;;-3.50;99.90;;;;;;5061119;28;20074;-69
2022/03/06 02:05:21;;;;;;;20.88;8.25;;;-3.50;99.90;;;;;;5078674;28;20032;-69
2022/03/06 02:07:49;;;;;;;18.02;8.45;;;-3.50;99.90;;;;;;5059973;28;20024;-69
2022/03/06 02:10:16;;;;;;;15.52;8.02;;;-3.50;99.90;;;;;;5078340;28;20027;-69
2022/03/06 02:12:46;;;;;;;19.48;8.52;;;-3.60;99.90;;;;;;5077833;28;20012;-69
2022/03/06 02:15:15;;;;;;;19.05;8.65;;;-3.60;99.90;;;;;;5077385;28;20025;-69
2022/03/06 02:17:43;;;;;;;18.98;8.30;;;-3.60;99.90;;;;;;5077634;28;20032;-69
2022/03/06 02:20:17;;;;;;;19.30;8.02;;;-3.60;99.90;;;;;;5077562;28;20025;-69
2022/03/06 02:22:47;;;;;;;16.83;8.57;;;-3.60;99.90;;;;;;5077547;28;20024;-69
2022/03/06 02:25:31;;;;;;;22.95;10.32;;;-3.60;99.90;;;;;;5077756;28;20320;-69
2022/03/06 02:28:00;;;;;;;18.20;9.45;;;-3.70;99.90;;;;;;5060211;28;20024;-69
2022/03/06 02:30:31;;;;;;;20.42;9.30;;;-3.70;99.90;;;;;;5060837;28;20375;-69
2022/03/06 02:33:02;;;;;;;17.23;8.05;;;-3.70;99.90;;;;;;5078522;28;20052;-69
2022/03/06 02:35:30;;;;;;;13.60;7.05;;;-3.70;99.90;;;;;;5078155;28;20047;-68
2022/03/06 02:37:57;;;;;;;19.55;9.13;;;-3.80;99.90;;;;;;5078163;28;20024;-69
2022/03/06 02:40:24;;;;;;;18.15;9.27;;;-3.80;99.90;;;;;;5078015;28;20025;-69
2022/03/06 02:42:53;;;;;;;18.58;8.73;;;-3.70;99.90;;;;;;5078045;28;20328;-69
2022/03/06 02:45:22;;;;;;;23.83;9.25;;;-3.80;99.90;;;;;;5078230;28;20158;-68
2022/03/06 02:47:51;;;;;;;19.33;10.82;;;-3.80;99.90;;;;;;5077736;28;20447;-69
2022/03/06 02:50:22;;;;;;;16.25;7.88;;;-3.80;99.90;;;;;;5077315;28;20111;-69
2022/03/06 02:52:50;;;;;;;19.92;8.75;;;-3.90;99.90;;;;;;5059191;28;20025;-69
2022/03/06 02:55:17;;;;;;;17.52;8.32;;;-3.90;99.90;;;;;;5076155;28;20110;-69
2022/03/06 02:57:45;;;;;;;17.70;7.97;;;-3.90;99.90;;;;;;5077206;28;20031;-69
2022/03/06 03:00:17;;;;;;;17.08;8.25;;;-4.00;99.90;;;;;;5058954;28;20031;-69
2022/03/06 03:02:46;;;;;;;16.48;7.57;;;-4.00;99.90;;;;;;5059042;28;20032;-68
2022/03/06 03:05:14;;;;;;;19.30;8.45;;;-4.00;99.90;;;;;;5076671;28;20333;-68
2022/03/06 03:07:44;;;;;;;18.23;8.20;;;-4.00;99.90;;;;;;5059093;28;20439;-69
2022/03/06 03:10:14;;;;;;;18.55;9.30;;;-4.10;99.90;;;;;;5077357;28;20017;-68
2022/03/06 03:12:43;;;;;;;19.95;9.48;;;-4.10;99.90;;;;;;5059874;28;20020;-68
2022/03/06 03:15:11;;;;;;;18.83;8.23;;;-4.10;99.90;;;;;;5059698;28;20338;-69
2022/03/06 03:17:39;;;;;;;18.75;8.02;;;-4.20;99.90;;;;;;5077773;28;20017;-68
2022/03/06 03:20:08;;;;;;;17.58;8.63;;;-4.20;99.90;;;;;;5059785;28;20120;-68
2022/03/06 03:22:35;;;;;;;16.58;8.00;;;-4.20;99.90;;;;;;5077582;28;20074;-68
2022/03/06 03:25:04;;;;;;;18.05;8.75;;;-4.20;99.90;;;;;;5059710;28;20027;-68
2022/03/06 03:27:31;;;;;;;18.33;8.38;;;-4.20;99.90;;;;;;5077546;28;20032;-68
2022/03/06 03:29:59;;;;;;;18.90;8.00;;;-4.30;99.90;;;;;;5042382;28;20392;-68
2022/03/06 03:32:26;;;;;;;26.98;8.70;;;-4.30;99.90;;;;;;5076544;28;20360;-69
2022/03/06 03:34:54;;;;;;;18.20;8.02;;;-4.30;99.90;;;;;;5076974;28;20388;-68
2022/03/06 03:37:21;;;;;;;19.30;8.23;;;-4.30;99.90;;;;;;5058820;28;20131;-69
2022/03/06 03:39:49;;;;;;;19.98;8.95;;;-4.30;99.90;;;;;;5076455;28;20074;-69
2022/03/06 03:42:16;;;;;;;22.75;8.57;;;-4.20;99.90;;;;;;5077004;28;20028;-68
2022/03/06 03:44:43;;;;;;;18.38;8.77;;;-4.30;99.90;;;;;;5076316;28;20435;-69
2022/03/06 03:47:11;;;;;;;18.52;8.10;;;-4.20;99.90;;;;;;5058676;28;20032;-69
2022/03/06 03:49:38;;;;;;;21.30;9.13;;;-4.30;99.90;;;;;;5076337;28;20021;-69
2022/03/06 03:52:05;;;;;;;20.25;8.93;;;-4.20;99.90;;;;;;5076601;28;20063;-69
2022/03/06 03:54:33;;;;;;;15.73;8.48;;;-4.20;99.90;;;;;;5059374;28;20027;-68
2022/03/06 03:57:00;;;;;;;17.30;7.88;;;-4.20;99.90;;;;;;5077789;28;20107;-69
2022/03/06 03:59:28;;;;;;;14.95;7.25;;;-4.20;99.90;;;;;;5059421;28;20028;-69
2022/03/06 04:01:55;;;;;;;15.27;7.55;;;-4.20;99.90;;;;;;5059336;28;20317;-68
2022/03/06 04:04:22;;;;;;;17.08;8.23;;;-4.10;99.90;;;;;;5077085;28;20020;-68
2022/03/06 04:06:50;;;;;;;16.40;7.47;;;-4.10;99.90;;;;;;5063151;28;20388;-68
2022/03/06 04:09:17;;;;;;;20.95;9.00;;;-4.10;99.90;;;;;;5081335;28;20021;-69
2022/03/06 04:11:44;;;;;;;19.77;7.70;;;-4.10;99.90;;;;;;5080697;28;20013;-68
2022/03/06 04:14:12;;;;;;;18.30;8.38;;;-4.00;99.90;;;;;;5045580;28;20021;-69
2022/03/06 04:16:39;;;;;;;17.88;8.15;;;-4.00;99.90;;;;;;5080017;28;20140;-68
2022/03/06 04:19:07;;;;;;;19.35;8.68;;;-3.90;99.90;;;;;;5079899;28;20024;-68
2022/03/06 04:21:34;;;;;;;16.05;7.35;;;-3.90;99.90;;;;;;5080466;28;20343;-68
2022/03/06 04:24:03;;;;;;;17.92;8.55;;;-3.80;99.90;;;;;;5062034;28;20048;-69
2022/03/06 04:26:30;;;;;;;20.90;8.93;;;-3.80;99.90;;;;;;5062124;28;20059;-68
2022/03/06 04:28:57;;;;;;;20.85;8.93;;;-3.70;99.90;;;;;;5080012;28;20294;-69
2022/03/06 04:31:25;;;;;;;16.52;8.27;;;-3.70;99.90;;;;;;5079651;28;20016;-68
2022/03/06 04:33:52;;;;;;;15.05;7.78;;;-3.70;99.90;;;;;;5061904;28;20016;-68
2022/03/06 04:36:20;;;;;;;21.88;8.70;;;-3.70;99.90;;;;;;5080648;28;20025;-68
2022/03/06 04:38:47;;;;;;;13.75;7.55;;;-3.60;99.90;;;;;;5080497;28;20028;-68
2022/03/06 04:41:16;;;;;;;17.25;9.00;;;-3.50;99.90;;;;;;5080917;28;20439;-69
2022/03/06 04:43:43;;;;;;;17.42;8.20;;;-3.50;99.90;;;;;;5080418;28;20068;-68
2022/03/06 04:46:12;;;;;;;19.17;8.27;;;-3.50;99.90;;;;;;5080360;28;20020;-69
2022/03/06 04:48:39;;;;;;;18.27;7.88;;;-3.40;99.90;;;;;;5080349;28;20017;-68
2022/03/06 04:51:07;;;;;;;18.88;8.40;;;-3.40;99.90;;;;;;5062787;28;20025;-69
2022/03/06 04:53:34;;;;;;;16.83;8.95;;;-3.30;99.90;;;;;;5080187;28;20023;-68
2022/03/06 04:56:02;;;;;;;20.23;8.50;;;-3.30;99.90;;;;;;5080102;28;20028;-69
2022/03/06 04:58:30;;;;;;;17.48;9.18;;;-3.20;99.90;;;;;;5079777;28;20104;-68
2022/03/06 05:00:57;;;;;;;19.63;8.45;;;-3.20;99.90;;;;;;5079112;28;20016;-69
2022/03/06 05:03:24;;;;;;;16.33;8.48;;;-3.20;99.90;;;;;;5061601;28;20031;-69
2022/03/06 05:05:51;;;;;;;16.70;7.82;;;-3.20;99.90;;;;;;5079232;28;20356;-69
2022/03/06 05:08:19;;;;;;;18.35;8.07;;;-3.10;99.90;;;;;;5079477;28;20024;-69
2022/03/06 05:10:46;;;;;;;17.90;8.25;;;-3.10;99.90;;;;;;5079025;28;20027;-69
2022/03/06 05:13:14;;;;;;;18.55;8.88;;;-3.10;99.90;;;;;;5079467;28;20410;-68
2022/03/06 05:15:42;;;;;;;17.10;8.52;;;-3.10;99.90;;;;;;5069114;28;20044;-69
2022/03/06 05:18:09;;;;;;;16.40;8.45;;;-3.00;99.90;;;;;;5098510;28;20361;-68
2022/03/06 05:20:37;;;;;;;16.83;8.07;;;-3.10;99.90;;;;;;5098988;28;20324;-69
2022/03/06 05:23:04;;;;;;;15.82;8.30;;;-3.00;99.90;;;;;;5098834;28;20035;-68
2022/03/06 05:25:32;;;;;;;16.38;8.23;;;-3.00;99.90;;;;;;5099933;28;20319;-68
2022/03/06 05:27:59;;;;;;;17.90;8.73;;;-3.00;99.90;;;;;;5100340;28;20028;-68
2022/03/06 05:30:27;;;;;;;17.88;8.65;;;-3.00;99.90;;;;;;5098888;28;20021;-68
2022/03/06 05:32:55;;;;;;;15.32;7.65;;;-3.00;99.90;;;;;;5100337;28;20027;-68
2022/03/06 05:35:22;;;;;;;19.92;9.05;;;-2.90;99.90;;;;;;5100022;28;20020;-68
2022/03/06 05:37:50;;;;;;;17.40;8.60;;;-2.90;99.90;;;;;;5099452;28;20077;-69
2022/03/06 05:40:21;;;;;;;19.92;8.63;;;-2.90;99.90;;;;;;5098888;28;20024;-68
2022/03/06 05:42:49;;;;;;;17.60;9.13;;;-2.90;99.90;;;;;;5098655;28;20105;-69
2022/03/06 05:45:16;;;;;;;19.23;8.82;;;-2.90;99.90;;;;;;5097522;28;20028;-68
2022/03/06 05:47:44;;;;;;;22.33;10.88;;;-2.90;99.90;;;;;;5097396;28;20020;-68
2022/03/06 05:50:12;;;;;;;16.17;8.35;;;-2.90;99.90;;;;;;5098992;28;20020;-68
2022/03/06 05:52:39;;;;;;;14.52;7.88;;;-2.90;99.90;;;;;;5097526;28;20074;-69
2022/03/06 05:55:08;;;;;;;16.65;8.13;;;-2.80;99.90;;;;;;5098949;28;20024;-68
2022/03/06 05:57:35;;;;;;;16.73;8.38;;;-2.90;99.90;;;;;;5097309;28;20419;-68
2022/03/06 06:00:08;;;;;;;16.70;8.00;;;-2.80;99.90;;;;;;5098743;28;20020;-69
2022/03/06 06:02:37;;;;;;;19.40;9.32;;;-2.80;99.90;;;;;;5099528;28;20021;-68
2022/03/06 06:05:06;;;;;;;18.52;8.43;;;-2.80;99.90;;;;;;5098023;28;20020;-68
2022/03/06 06:07:33;;;;;;;20.30;8.18;;;-2.80;99.90;;;;;;5099038;28;20027;-68
2022/03/06 06:10:02;;;;;;;16.00;7.47;;;-2.70;99.90;;;;;;5099080;28;20320;-68
2022/03/06 06:12:30;;;;;;;17.10;8.30;;;-2.70;99.90;;;;;;5099319;28;20050;-68
2022/03/06 06:14:57;;;;;;;19.25;9.15;;;-2.70;99.90;;;;;;5098343;28;20044;-68
2022/03/06 06:17:25;;;;;;;14.45;7.60;;;-2.70;99.90;;;;;;5078615;28;20053;-69
2022/03/06 06:19:53;;;;;;;18.08;8.70;;;-2.70;99.90;;;;;;5078477;28;20028;-68
2022/03/06 06:22:20;;;;;;;18.33;8.65;;;-2.70;99.90;;;;;;5077741;28;20027;-69
2022/03/06 06:24:48;;;;;;;18.08;8.55;;;-2.70;99.90;;;;;;5059799;28;20028;-69
2022/03/06 06:27:15;;;;;;;17.55;8.90;;;-2.60;99.90;;;;;;5077963;28;20028;-69
2022/03/06 06:29:43;;;;;;;19.50;8.35;;;-2.60;99.90;;;;;;5077773;28;20024;-73
2022/03/06 06:32:10;;;;;;;18.65;8.68;;;-2.50;99.90;;;;;;5077557;28;20044;-73
2022/03/06 06:34:38;;;;;;;18.08;8.90;;;-2.50;99.90;;;;;;5059582;28;20031;-74
2022/03/06 06:37:05;;;;;;;19.80;8.73;;;-2.40;99.90;;;;;;5077319;28;20021;-74
2022/03/06 06:39:33;;;;;;;23.08;9.20;;;-2.40;99.90;;;;;;5077152;28;20424;-74
2022/03/06 06:42:01;;;;;;;17.52;8.15;;;-2.30;99.90;;;;;;5077564;28;20451;-74
2022/03/06 06:44:28;;;;;;;16.40;7.93;;;-2.30;99.90;;;;;;5060321;28;20074;-74
2022/03/06 06:46:56;;;;;;;19.95;9.20;;;-2.20;99.90;;;;;;5060382;28;20020;-74
2022/03/06 06:49:24;;;;;;;19.75;9.20;;;-2.10;99.90;;;;;;5060248;28;20058;-74
2022/03/06 06:51:51;;;;;;;18.52;8.93;;;-2.10;99.90;;;;;;5060253;28;20027;-74
2022/03/06 06:54:19;;;;;;;19.42;7.80;;;-2.00;99.90;;;;;;5060102;28;20124;-74
2022/03/06 06:56:47;;;;;;;16.63;8.40;;;-1.90;99.90;;;;;;5078193;28;20052;-74
2022/03/06 06:59:15;;;;;;;17.38;8.43;;;-1.80;99.90;;;;;;5077691;28;20067;-74
2022/03/06 07:01:42;;;;;;;16.55;8.70;;;-1.80;99.90;;;;;;5060134;28;20028;-74
2022/03/06 07:04:10;;;;;;;18.60;9.55;;;-1.70;99.90;;;;;;5059346;28;20420;-74
2022/03/06 07:06:38;;;;;;;15.88;8.27;;;-1.60;99.90;;;;;;5077013;28;20412;-74
2022/03/06 07:09:06;;;;;;;20.45;9.40;;;-1.50;99.90;;;;;;5076672;28;20017;-74
2022/03/06 07:11:33;;;;;;;17.63;7.75;;;-1.40;99.90;;;;;;5077191;28;20286;-76
2022/03/06 07:14:00;;;;;;;17.17;8.57;;;-1.40;99.90;;;;;;5076933;28;20103;-77
2022/03/06 07:16:28;;;;;;;19.45;9.00;;;-1.30;99.90;;;;;;5076662;28;20048;-77
2022/03/06 07:18:55;;;;;;;20.02;9.77;;;-1.20;99.90;;;;;;5058761;28;20024;-76
2022/03/06 07:21:23;;;;;;;17.70;8.35;;;-1.10;99.90;;;;;;5076643;28;20020;-73
2022/03/06 07:23:50;;;;;;;17.17;8.20;;;-1.00;99.90;;;;;;5076969;28;20024;-73
2022/03/06 07:26:18;;;;;;;16.48;8.82;;;-1.00;99.90;;;;;;5077039;28;20403;-72
2022/03/06 07:28:46;;;;;;;19.67;8.82;;;-0.90;99.90;;;;;;5077700;28;20016;-72
2022/03/06 07:31:13;;;;;;;14.43;8.07;;;-0.80;99.90;;;;;;5077993;28;20020;-72
2022/03/06 07:33:41;;;;;;;17.40;8.25;;;-0.70;99.90;;;;;;5077397;28;20024;-76
2022/03/06 07:36:08;;;;;;;15.30;8.23;;;-0.60;99.90;;;;;;5077275;28;20024;-77
2022/03/06 07:38:36;;;;;;;30.33;11.52;;;-0.50;99.90;;;;;;5059462;28;20044;-77
2022/03/06 07:41:03;;;;;;;36.95;13.75;;;-0.40;99.90;;;;;;5077250;28;20031;-76
2022/03/06 07:43:31;;;;;;;45.63;18.98;;;-0.30;99.90;;;;;;5077563;28;20051;-77
2022/03/06 07:45:58;;;;;;;35.80;15.40;;;-0.20;99.90;;;;;;5076973;28;20016;-76
2022/03/06 07:48:26;;;;;;;74.93;31.60;;;-0.10;99.90;;;;;;5076798;28;20024;-76
2022/03/06 07:50:54;;;;;;;67.63;29.27;;;0.00;99.90;;;;;;5058502;28;20052;-76
2022/03/06 07:53:21;;;;;;;58.47;25.25;;;0.10;99.90;;;;;;5058459;28;20021;-77
2022/03/06 07:55:49;;;;;;;43.70;18.55;;;0.20;99.90;;;;;;5076496;28;20091;-73
2022/03/06 07:58:16;;;;;;;31.88;14.13;;;0.30;99.90;;;;;;5076800;28;20028;-77
2022/03/06 08:00:43;;;;;;;30.10;13.55;;;0.40;99.90;;;;;;5058347;28;20032;-77
2022/03/06 08:03:11;;;;;;;35.55;16.27;;;0.40;99.90;;;;;;5058324;28;20028;-75
2022/03/06 08:05:38;;;;;;;31.50;15.63;;;0.50;99.90;;;;;;5076441;28;20096;-73
2022/03/06 08:08:06;;;;;;;28.05;13.80;;;0.60;99.90;;;;;;5076307;28;20432;-76
2022/03/06 08:10:35;;;;;;;25.13;13.88;;;0.70;99.90;;;;;;5077088;28;20412;-71
2022/03/06 08:13:02;;;;;;;24.92;13.15;;;0.80;99.90;;;;;;5077021;28;20359;-71
2022/03/06 08:15:30;;;;;;;35.60;15.88;;;0.80;99.90;;;;;;5077027;28;20068;-68
2022/03/06 08:17:58;;;;;;;31.98;15.85;;;0.90;99.90;;;;;;5076983;28;20056;-68
2022/03/06 08:20:27;;;;;;;20.08;10.05;;;1.00;99.90;;;;;;5077212;28;20024;-68
2022/03/06 08:22:54;;;;;;;20.75;10.05;;;1.00;99.90;;;;;;5077437;28;20108;-69
2022/03/06 08:25:22;;;;;;;18.88;9.27;;;1.10;99.90;;;;;;5059255;28;20073;-69
2022/03/06 08:27:50;;;;;;;16.52;9.57;;;1.10;99.90;;;;;;5076637;28;20108;-69
2022/03/06 08:30:18;;;;;;;17.48;9.10;;;1.20;99.90;;;;;;5075850;28;20412;-69
2022/03/06 08:32:46;;;;;;;14.35;7.68;;;1.20;99.90;;;;;;5058039;28;20301;-69
2022/03/06 08:35:14;;;;;;;16.35;7.47;;;1.30;99.90;;;;;;5076309;28;20478;-70
2022/03/06 08:37:41;;;;;;;15.27;7.90;;;1.40;99.90;;;;;;5076576;28;20035;-72
2022/03/06 08:40:09;;;;;;;17.20;8.02;;;1.40;99.90;;;;;;5058306;28;20428;-72
2022/03/06 08:42:37;;;;;;;16.73;7.72;;;1.50;99.90;;;;;;5057984;28;20031;-72
2022/03/06 08:45:05;;;;;;;14.25;8.15;;;1.60;99.90;;;;;;5075636;28;20035;-70
2022/03/06 08:47:33;;;;;;;12.73;7.28;;;1.60;99.90;;;;;;5076836;28;20297;-69
2022/03/06 08:50:00;;;;;;;14.18;7.57;;;1.70;99.90;;;;;;5075736;28;20025;-70
2022/03/06 08:52:28;;;;;;;17.48;9.45;;;1.80;99.90;;;;;;5078338;28;20016;-70
2022/03/06 08:54:55;;;;;;;15.50;8.13;;;1.90;99.90;;;;;;5080565;28;20460;-69
2022/03/06 08:57:23;;;;;;;14.90;8.02;;;2.00;99.90;;;;;;5080152;28;20048;-69
2022/03/06 08:59:51;;;;;;;15.77;8.18;;;2.00;99.90;;;;;;5079922;28;20104;-69
2022/03/06 09:02:18;;;;;;;17.80;8.57;;;2.10;99.90;;;;;;5079922;28;20040;-72
2022/03/06 09:04:45;;;;;;;14.65;8.02;;;2.20;99.90;;;;;;5062181;28;20024;-72
2022/03/06 09:07:13;;;;;;;14.70;7.47;;;2.20;99.90;;;;;;5080338;28;20042;-72
2022/03/06 09:09:40;;;;;;;17.80;8.60;;;2.30;99.90;;;;;;5080396;28;20021;-71
2022/03/06 09:12:08;;;;;;;25.48;11.25;;;2.40;99.90;;;;;;5062033;28;20029;-71
2022/03/06 09:14:35;;;;;;;29.58;11.77;;;2.50;99.90;;;;;;5079388;28;20052;-71
2022/03/06 09:17:03;;;;;;;33.75;13.93;;;2.50;99.90;;;;;;5090913;28;20082;-70
2022/03/06 09:19:31;;;;;;;34.85;13.23;;;2.60;99.90;;;;;;5097911;28;20031;-71
2022/03/06 09:21:59;;;;;;;47.03;16.80;;;2.70;99.90;;;;;;5099207;28;20106;-72
2022/03/06 09:24:27;;;;;;;24.98;10.50;;;2.70;99.90;;;;;;5097875;28;20032;-73
2022/03/06 09:26:54;;;;;;;13.57;7.10;;;2.80;99.90;;;;;;5098878;28;20096;-72
2022/03/06 09:29:22;;;;;;;14.13;8.20;;;2.80;99.90;;;;;;5099377;28;20388;-71
2022/03/06 09:31:50;;;;;;;13.10;7.45;;;2.90;99.90;;;;;;5098928;28;20031;-69
2022/03/06 09:34:17;;;;;;;16.52;7.13;;;3.00;99.90;;;;;;5099535;28;20020;-70
2022/03/06 09:36:45;;;;;;;12.60;7.00;;;3.00;99.90;;;;;;5100156;28;20024;-70
2022/03/06 09:39:13;;;;;;;14.40;7.75;;;3.10;99.90;;;;;;5099835;28;20026;-71
2022/03/06 09:41:40;;;;;;;13.77;7.13;;;3.10;99.90;;;;;;5099644;28;20024;-72
2022/03/06 09:44:10;;;;;;;13.60;6.82;;;3.20;99.90;;;;;;5099481;28;20099;-72
2022/03/06 09:46:38;;;;;;;14.88;7.38;;;3.30;99.90;;;;;;5099403;28;20024;-72
2022/03/06 09:49:08;;;;;;;11.38;6.28;;;3.30;99.90;;;;;;5099625;28;20023;-73
2022/03/06 09:51:42;;;;;;;11.07;5.85;;;3.40;99.90;;;;;;5099540;28;20362;-72
2022/03/06 09:54:12;;;;;;;10.05;6.25;;;3.50;99.90;;;;;;5098408;28;20024;-72
2022/03/06 09:56:41;;;;;;;13.13;6.63;;;3.50;99.90;;;;;;5098374;28;20024;-72
2022/03/06 09:59:09;;;;;;;17.30;6.50;;;3.60;99.90;;;;;;5098260;28;20024;-72
2022/03/06 10:01:37;;;;;;;14.90;7.53;;;3.60;99.90;;;;;;5098298;28;20370;-72
2022/03/06 10:04:25;;;;;;;12.45;6.95;;;3.70;99.90;;;;;;5097748;28;20050;-72
2022/03/06 10:07:08;;;;;;;11.27;5.90;;;3.80;99.90;;;;;;5098068;28;20083;-72
2022/03/06 10:09:48;;;;;;;10.52;6.38;;;3.80;99.90;;;;;;5098591;28;20020;-73
2022/03/06 10:12:31;;;;;;;11.05;6.13;;;3.90;99.90;;;;;;5098236;28;20435;-72
2022/03/06 10:15:00;;;;;;;12.55;6.32;;;4.00;99.90;;;;;;5098456;28;20043;-72
2022/03/06 10:17:30;;;;;;;10.57;5.65;;;4.00;99.90;;;;;;5078475;28;20338;-72
2022/03/06 10:20:02;;;;;;;9.23;5.25;;;4.20;99.90;;;;;;5060753;28;20111;-72
2022/03/06 10:22:35;;;;;;;9.70;5.82;;;4.20;99.90;;;;;;5078491;28;20116;-73
2022/03/06 10:25:07;;;;;;;14.20;7.03;;;4.30;99.90;;;;;;5078399;28;20316;-73
2022/03/06 10:27:57;;;;;;;12.30;6.20;;;4.30;99.90;;;;;;5078318;28;20025;-71
2022/03/06 10:30:37;;;;;;;14.07;7.22;;;4.40;99.90;;;;;;5078633;28;20043;-72
2022/03/06 10:33:12;;;;;;;14.55;7.93;;;4.50;99.90;;;;;;5078334;28;20031;-75
2022/03/06 10:35:42;;;;;;;13.90;7.38;;;4.60;99.90;;;;;;5078173;28;20027;-69
2022/03/06 10:38:32;;;;;;;15.13;7.53;;;4.60;99.90;;;;;;5077525;28;20055;-71
2022/03/06 10:41:11;;;;;;;10.55;6.20;;;4.70;99.90;;;;;;5077281;28;20047;-73
2022/03/06 10:43:40;;;;;;;13.30;6.22;;;4.70;99.90;;;;;;5077150;28;20021;-70
2022/03/06 10:46:14;;;;;;;11.80;5.57;;;4.70;99.90;;;;;;5059726;28;20355;-71
2022/03/06 10:48:44;;;;;;;12.77;6.00;;;4.80;99.90;;;;;;5077064;28;20017;-71
2022/03/06 10:51:14;;;;;;;11.02;6.70;;;4.80;99.90;;;;;;5077050;28;20021;-71
2022/03/06 10:53:42;;;;;;;10.00;6.25;;;4.90;99.90;;;;;;5076772;28;20025;-71
2022/03/06 10:56:12;;;;;;;12.95;7.15;;;4.90;99.90;;;;;;5077149;28;20401;-71
2022/03/06 10:58:45;;;;;;;9.20;5.53;;;4.90;99.90;;;;;;5078000;28;20024;-71
2022/03/06 11:01:13;;;;;;;12.57;5.80;;;5.00;99.90;;;;;;5077745;28;20446;-70
2022/03/06 11:03:41;;;;;;;10.02;5.20;;;5.10;99.90;;;;;;5077861;28;20032;-72
2022/03/06 11:06:11;;;;;;;9.40;4.65;;;5.20;99.90;;;;;;5077994;28;20108;-70
2022/03/06 11:08:39;;;;;;;6.85;4.00;;;5.20;99.90;;;;;;5077742;28;20020;-70
2022/03/06 11:11:09;;;;;;;9.63;3.67;;;5.30;99.90;;;;;;5059882;28;20111;-70
2022/03/06 11:13:37;;;;;;;8.80;4.25;;;5.30;99.90;;;;;;5077693;28;20024;-71
2022/03/06 11:16:06;;;;;;;11.50;4.30;;;5.30;99.90;;;;;;5076784;28;20360;-71
2022/03/06 11:18:34;;;;;;;9.73;3.90;;;5.30;99.90;;;;;;5076863;28;20024;-70
2022/03/06 11:21:03;;;;;;;8.95;4.63;;;5.30;99.90;;;;;;5076543;28;20345;-70
2022/03/06 11:23:46;;;;;;;7.43;4.45;;;5.20;99.90;;;;;;5076663;28;20094;-71
2022/03/06 11:26:13;;;;;;;13.75;5.63;;;5.20;99.90;;;;;;5059228;28;20031;-71
2022/03/06 11:29:24;;;;;;;7.88;4.90;;;5.10;99.90;;;;;;5077168;28;20062;-71
2022/03/06 11:31:55;;;;;;;10.68;4.90;;;4.90;99.90;;;;;;5077197;28;20031;-71
2022/03/06 11:34:25;;;;;;;12.02;5.22;;;4.70;99.90;;;;;;5076469;28;20020;-71
2022/03/06 11:36:54;;;;;;;6.05;3.63;;;4.50;99.90;;;;;;5076779;28;20029;-71
2022/03/06 11:39:31;;;;;;;9.02;3.75;;;4.40;99.90;;;;;;5076291;28;20359;-70
2022/03/06 11:42:00;;;;;;;6.55;3.67;;;4.30;99.90;;;;;;5077746;28;20020;-70
2022/03/06 11:44:39;;;;;;;9.18;4.38;;;4.10;99.90;;;;;;5077148;28;20027;-69
2022/03/06 11:47:14;;;;;;;6.55;3.83;;;4.00;99.90;;;;;;5059854;28;20409;-69
2022/03/06 11:49:42;;;;;;;7.30;4.25;;;3.90;99.90;;;;;;5077435;28;20359;-69
2022/03/06 11:52:28;;;;;;;8.85;3.90;;;3.80;99.90;;;;;;5077301;28;20021;-70
2022/03/06 11:54:57;;;;;;;8.30;4.30;;;3.70;99.90;;;;;;5077567;28;20016;-70
2022/03/06 11:57:47;;;;;;;7.55;3.85;;;3.60;99.90;;;;;;5077840;28;20032;-70
2022/03/06 12:00:26;;;;;;;6.97;3.75;;;3.60;99.90;;;;;;5077382;28;20021;-70
2022/03/06 12:02:56;;;;;;;6.90;3.63;;;3.50;99.90;;;;;;5076183;28;20027;-70
2022/03/06 12:05:48;;;;;;;11.00;3.83;;;3.50;99.90;;;;;;5076192;28;20067;-69
2022/03/06 12:08:19;;;;;;;7.47;3.67;;;3.50;99.90;;;;;;5076044;28;20024;-70
2022/03/06 12:10:48;;;;;;;6.80;3.63;;;3.50;99.90;;;;;;5076417;28;20017;-70
2022/03/06 12:13:22;;;;;;;6.93;4.00;;;3.50;99.90;;;;;;5076622;28;20020;-69
2022/03/06 12:16:04;;;;;;;4.88;3.03;;;3.60;99.90;;;;;;5076111;28;20433;-70
2022/03/06 12:18:33;;;;;;;5.70;2.80;;;3.60;99.90;;;;;;5076061;28;20138;-71
2022/03/06 12:21:01;;;;;;;6.07;3.25;;;3.70;99.90;;;;;;5076596;28;20049;-71
2022/03/06 12:23:30;;;;;;;11.23;4.10;;;3.70;99.90;;;;;;5058515;28;20041;-71
2022/03/06 12:26:00;;;;;;;10.48;4.70;;;3.80;99.90;;;;;;5078222;28;20028;-70
2022/03/06 12:28:38;;;;;;;9.70;4.60;;;3.80;99.90;;;;;;5080886;28;20432;-70
2022/03/06 12:31:37;;;;;;;6.50;3.72;;;3.80;99.90;;;;;;5080842;28;20460;-70
2022/03/06 12:34:37;;;;;;;5.53;2.97;;;4.00;99.90;;;;;;5075248;28;20090;-70
2022/03/06 12:37:05;;;;;;;7.00;3.38;;;4.00;99.90;;;;;;5063158;28;20324;-70
2022/03/06 12:39:37;;;;;;;7.05;3.17;;;4.00;99.90;;;;;;5080491;28;20016;-70
2022/03/06 12:42:05;;;;;;;7.50;3.33;;;4.10;99.90;;;;;;5080948;28;20427;-70
2022/03/06 12:44:39;;;;;;;8.00;3.45;;;4.00;99.90;;;;;;5061685;28;20471;-70
2022/03/06 12:47:07;;;;;;;5.75;2.70;;;4.10;99.90;;;;;;5079430;28;20323;-70
2022/03/06 12:49:34;;;;;;;6.05;3.28;;;4.10;99.90;;;;;;5061438;28;20028;-70
2022/03/06 12:52:03;;;;;;;6.50;3.78;;;4.10;99.50;;;;;;5061477;28;20021;-70